Lomita, California
Current Conditions -  °F | °C
As of 11:53 AM on Saturday 20 Dec 2014 (Local Time) from KHHR Reporting Station
Clear Clear  
Wind Chill: 63°   Ceiling: Unl
Heat Index: 63°   Visibility: 9mi
Dew Point: 50°   Wind: 3mph
Humidity: 63%   Direction: NA
Pressure: 30.17"   Gusts: NA
Location:  33.81°N, 118.31°W
Report Text: KHHR 201953Z VRB03KT 9SM CLR 17/10 A3017 RMK AO2 SLP216 T01720100
Loading
Personal Weather Stations






























Interactive Weather Map New forecast layout! Learn more

10-Day Weather Forecast

Advertisements
Track Severe Weather on mobile